sensor_id;sensor_type;location;lat;lon;timestamp;P1;durP1;ratioP1;P2;durP2;ratioP2
51248;SDS011;39642;47.556;18.728;2022-11-02T00:00:26;13.10;;;4.82;;
51248;SDS011;39642;47.556;18.728;2022-11-02T00:02:53;12.65;;;5.28;;
51248;SDS011;39642;47.556;18.728;2022-11-02T00:05:19;12.65;;;5.10;;
51248;SDS011;39642;47.556;18.728;2022-11-02T00:07:49;12.57;;;4.90;;
51248;SDS011;39642;47.556;18.728;2022-11-02T00:10:19;12.73;;;5.15;;
51248;SDS011;39642;47.556;18.728;2022-11-02T00:12:47;12.13;;;4.93;;
51248;SDS011;39642;47.556;18.728;2022-11-02T00:15:14;13.32;;;4.70;;
51248;SDS011;39642;47.556;18.728;2022-11-02T00:17:41;13.38;;;4.97;;
51248;SDS011;39642;47.556;18.728;2022-11-02T00:20:09;13.35;;;5.03;;
51248;SDS011;39642;47.556;18.728;2022-11-02T00:22:36;13.07;;;5.47;;
51248;SDS011;39642;47.556;18.728;2022-11-02T00:25:03;12.63;;;5.18;;
51248;SDS011;39642;47.556;18.728;2022-11-02T00:27:31;13.20;;;4.55;;
51248;SDS011;39642;47.556;18.728;2022-11-02T00:29:59;12.43;;;4.87;;
51248;SDS011;39642;47.556;18.728;2022-11-02T00:32:25;11.63;;;4.45;;
51248;SDS011;39642;47.556;18.728;2022-11-02T00:34:51;13.30;;;4.85;;
51248;SDS011;39642;47.556;18.728;2022-11-02T00:37:17;12.05;;;4.25;;
51248;SDS011;39642;47.556;18.728;2022-11-02T00:39:43;11.90;;;4.50;;
51248;SDS011;39642;47.556;18.728;2022-11-02T00:42:09;11.73;;;4.60;;
51248;SDS011;39642;47.556;18.728;2022-11-02T00:44:35;12.57;;;4.80;;
51248;SDS011;39642;47.556;18.728;2022-11-02T00:47:01;12.65;;;4.90;;
51248;SDS011;39642;47.556;18.728;2022-11-02T00:49:27;12.82;;;4.78;;
51248;SDS011;39642;47.556;18.728;2022-11-02T00:51:53;11.82;;;4.70;;
51248;SDS011;39642;47.556;18.728;2022-11-02T00:54:19;11.88;;;4.65;;
51248;SDS011;39642;47.556;18.728;2022-11-02T00:56:45;13.23;;;4.87;;
51248;SDS011;39642;47.556;18.728;2022-11-02T00:59:11;13.07;;;5.15;;
51248;SDS011;39642;47.556;18.728;2022-11-02T01:01:37;12.10;;;5.30;;
51248;SDS011;39642;47.556;18.728;2022-11-02T01:04:03;11.68;;;4.68;;
51248;SDS011;39642;47.556;18.728;2022-11-02T01:06:29;14.18;;;5.00;;
51248;SDS011;39642;47.556;18.728;2022-11-02T01:08:55;11.93;;;4.70;;
51248;SDS011;39642;47.556;18.728;2022-11-02T01:11:21;12.30;;;4.60;;
51248;SDS011;39642;47.556;18.728;2022-11-02T01:13:51;13.00;;;4.90;;
51248;SDS011;39642;47.556;18.728;2022-11-02T01:16:19;11.98;;;4.60;;
51248;SDS011;39642;47.556;18.728;2022-11-02T01:18:45;11.63;;;4.12;;
51248;SDS011;39642;47.556;18.728;2022-11-02T01:21:11;13.30;;;4.80;;
51248;SDS011;39642;47.556;18.728;2022-11-02T01:23:37;10.70;;;4.32;;
51248;SDS011;39642;47.556;18.728;2022-11-02T01:26:03;12.02;;;4.35;;
51248;SDS011;39642;47.556;18.728;2022-11-02T01:28:31;12.27;;;4.90;;
51248;SDS011;39642;47.556;18.728;2022-11-02T01:30:57;12.63;;;5.35;;
51248;SDS011;39642;47.556;18.728;2022-11-02T01:33:24;13.45;;;4.93;;
51248;SDS011;39642;47.556;18.728;2022-11-02T01:35:51;11.73;;;4.37;;
51248;SDS011;39642;47.556;18.728;2022-11-02T01:38:17;10.90;;;4.43;;
51248;SDS011;39642;47.556;18.728;2022-11-02T01:40:43;11.18;;;4.50;;
51248;SDS011;39642;47.556;18.728;2022-11-02T01:43:25;12.25;;;4.30;;
51248;SDS011;39642;47.556;18.728;2022-11-02T01:45:59;10.90;;;4.25;;
51248;SDS011;39642;47.556;18.728;2022-11-02T01:48:34;12.63;;;4.55;;
51248;SDS011;39642;47.556;18.728;2022-11-02T01:51:05;12.60;;;4.97;;
51248;SDS011;39642;47.556;18.728;2022-11-02T01:53:36;11.82;;;4.53;;
51248;SDS011;39642;47.556;18.728;2022-11-02T01:56:04;11.82;;;4.25;;
51248;SDS011;39642;47.556;18.728;2022-11-02T01:58:31;12.93;;;4.78;;
51248;SDS011;39642;47.556;18.728;2022-11-02T02:00:59;11.27;;;4.37;;
51248;SDS011;39642;47.556;18.728;2022-11-02T02:03:25;13.00;;;4.65;;
51248;SDS011;39642;47.556;18.728;2022-11-02T02:05:56;11.52;;;4.25;;
51248;SDS011;39642;47.556;18.728;2022-11-02T02:08:26;11.12;;;4.70;;
51248;SDS011;39642;47.556;18.728;2022-11-02T02:10:56;13.40;;;4.68;;
51248;SDS011;39642;47.556;18.728;2022-11-02T02:13:22;13.18;;;4.55;;
51248;SDS011;39642;47.556;18.728;2022-11-02T02:16:33;12.30;;;4.35;;
51248;SDS011;39642;47.556;18.728;2022-11-02T02:18:59;12.40;;;4.55;;
51248;SDS011;39642;47.556;18.728;2022-11-02T02:24:54;11.38;;;4.62;;
51248;SDS011;39642;47.556;18.728;2022-11-02T02:27:55;11.15;;;4.20;;
51248;SDS011;39642;47.556;18.728;2022-11-02T02:30:26;11.40;;;4.30;;
51248;SDS011;39642;47.556;18.728;2022-11-02T02:33:01;12.45;;;4.35;;
51248;SDS011;39642;47.556;18.728;2022-11-02T02:35:56;11.65;;;4.20;;
51248;SDS011;39642;47.556;18.728;2022-11-02T02:38:37;10.85;;;4.25;;
51248;SDS011;39642;47.556;18.728;2022-11-02T02:41:18;11.05;;;4.25;;
51248;SDS011;39642;47.556;18.728;2022-11-02T02:43:52;11.70;;;4.50;;
51248;SDS011;39642;47.556;18.728;2022-11-02T02:46:36;11.88;;;4.32;;
51248;SDS011;39642;47.556;18.728;2022-11-02T02:49:09;12.50;;;4.50;;
51248;SDS011;39642;47.556;18.728;2022-11-02T02:51:38;10.23;;;4.32;;
51248;SDS011;39642;47.556;18.728;2022-11-02T02:54:07;13.38;;;4.95;;
51248;SDS011;39642;47.556;18.728;2022-11-02T02:56:41;11.68;;;4.50;;
51248;SDS011;39642;47.556;18.728;2022-11-02T02:59:24;11.10;;;4.47;;
51248;SDS011;39642;47.556;18.728;2022-11-02T03:01:53;11.63;;;4.40;;
51248;SDS011;39642;47.556;18.728;2022-11-02T03:04:20;10.70;;;4.15;;
51248;SDS011;39642;47.556;18.728;2022-11-02T03:06:51;11.43;;;4.40;;
51248;SDS011;39642;47.556;18.728;2022-11-02T03:15:08;10.85;;;4.22;;
51248;SDS011;39642;47.556;18.728;2022-11-02T03:20:32;11.45;;;4.45;;
51248;SDS011;39642;47.556;18.728;2022-11-02T03:23:20;11.12;;;3.97;;
51248;SDS011;39642;47.556;18.728;2022-11-02T03:39:51;11.88;;;4.75;;
51248;SDS011;39642;47.556;18.728;2022-11-02T03:42:22;11.68;;;4.28;;
51248;SDS011;39642;47.556;18.728;2022-11-02T03:44:53;11.52;;;4.50;;
51248;SDS011;39642;47.556;18.728;2022-11-02T03:47:22;12.63;;;4.20;;
51248;SDS011;39642;47.556;18.728;2022-11-02T03:49:50;11.57;;;4.30;;
51248;SDS011;39642;47.556;18.728;2022-11-02T03:52:20;11.00;;;4.20;;
51248;SDS011;39642;47.556;18.728;2022-11-02T03:57:48;11.35;;;4.30;;
51248;SDS011;39642;47.556;18.728;2022-11-02T04:00:17;11.38;;;4.70;;
51248;SDS011;39642;47.556;18.728;2022-11-02T04:02:45;11.10;;;4.22;;
51248;SDS011;39642;47.556;18.728;2022-11-02T04:05:13;11.23;;;4.45;;
51248;SDS011;39642;47.556;18.728;2022-11-02T04:07:41;11.45;;;4.15;;
51248;SDS011;39642;47.556;18.728;2022-11-02T04:10:29;10.93;;;4.05;;
51248;SDS011;39642;47.556;18.728;2022-11-02T04:12:55;11.90;;;4.53;;
51248;SDS011;39642;47.556;18.728;2022-11-02T04:15:40;12.35;;;4.55;;
51248;SDS011;39642;47.556;18.728;2022-11-02T04:18:05;10.45;;;3.83;;
51248;SDS011;39642;47.556;18.728;2022-11-02T04:20:50;12.10;;;4.25;;
51248;SDS011;39642;47.556;18.728;2022-11-02T04:23:17;11.80;;;4.20;;
51248;SDS011;39642;47.556;18.728;2022-11-02T04:26:02;11.18;;;4.22;;
51248;SDS011;39642;47.556;18.728;2022-11-02T04:28:28;11.23;;;4.35;;
51248;SDS011;39642;47.556;18.728;2022-11-02T04:30:56;11.38;;;3.97;;
51248;SDS011;39642;47.556;18.728;2022-11-02T04:33:24;11.60;;;4.05;;
51248;SDS011;39642;47.556;18.728;2022-11-02T04:36:03;11.95;;;4.35;;
51248;SDS011;39642;47.556;18.728;2022-11-02T04:38:31;12.02;;;4.40;;
51248;SDS011;39642;47.556;18.728;2022-11-02T04:41:07;10.57;;;4.12;;
51248;SDS011;39642;47.556;18.728;2022-11-02T04:43:56;11.10;;;3.87;;
51248;SDS011;39642;47.556;18.728;2022-11-02T04:46:23;10.32;;;3.97;;
51248;SDS011;39642;47.556;18.728;2022-11-02T04:48:50;10.88;;;4.25;;
51248;SDS011;39642;47.556;18.728;2022-11-02T04:51:17;11.25;;;4.22;;
51248;SDS011;39642;47.556;18.728;2022-11-02T04:53:45;11.00;;;4.20;;
51248;SDS011;39642;47.556;18.728;2022-11-02T04:56:12;10.27;;;3.75;;
51248;SDS011;39642;47.556;18.728;2022-11-02T04:58:38;12.00;;;4.30;;
51248;SDS011;39642;47.556;18.728;2022-11-02T05:01:05;11.55;;;4.12;;
51248;SDS011;39642;47.556;18.728;2022-11-02T05:03:31;10.50;;;3.87;;
51248;SDS011;39642;47.556;18.728;2022-11-02T05:05:57;9.57;;;3.72;;
51248;SDS011;39642;47.556;18.728;2022-11-02T05:08:23;11.45;;;4.20;;
51248;SDS011;39642;47.556;18.728;2022-11-02T05:10:52;11.32;;;4.25;;
51248;SDS011;39642;47.556;18.728;2022-11-02T05:13:19;11.88;;;4.15;;
51248;SDS011;39642;47.556;18.728;2022-11-02T05:15:45;11.50;;;4.15;;
51248;SDS011;39642;47.556;18.728;2022-11-02T05:18:11;10.93;;;4.30;;
51248;SDS011;39642;47.556;18.728;2022-11-02T05:20:37;10.52;;;4.03;;
51248;SDS011;39642;47.556;18.728;2022-11-02T05:23:03;10.90;;;4.25;;
51248;SDS011;39642;47.556;18.728;2022-11-02T05:25:30;11.35;;;4.00;;
51248;SDS011;39642;47.556;18.728;2022-11-02T05:27:56;12.45;;;4.82;;
51248;SDS011;39642;47.556;18.728;2022-11-02T05:30:22;11.38;;;3.95;;
51248;SDS011;39642;47.556;18.728;2022-11-02T05:32:48;10.38;;;4.07;;
51248;SDS011;39642;47.556;18.728;2022-11-02T05:35:14;10.48;;;3.45;;
51248;SDS011;39642;47.556;18.728;2022-11-02T05:37:40;11.10;;;4.00;;
51248;SDS011;39642;47.556;18.728;2022-11-02T05:40:06;12.75;;;4.28;;
51248;SDS011;39642;47.556;18.728;2022-11-02T05:42:33;13.25;;;4.53;;
51248;SDS011;39642;47.556;18.728;2022-11-02T05:44:59;11.20;;;3.80;;
51248;SDS011;39642;47.556;18.728;2022-11-02T05:47:25;11.80;;;4.35;;
51248;SDS011;39642;47.556;18.728;2022-11-02T05:49:50;10.77;;;4.15;;
51248;SDS011;39642;47.556;18.728;2022-11-02T05:52:16;13.57;;;4.72;;
51248;SDS011;39642;47.556;18.728;2022-11-02T05:54:42;15.30;;;5.15;;
51248;SDS011;39642;47.556;18.728;2022-11-02T05:57:08;13.38;;;4.68;;
51248;SDS011;39642;47.556;18.728;2022-11-02T05:59:34;12.30;;;4.18;;
51248;SDS011;39642;47.556;18.728;2022-11-02T06:02:00;14.13;;;5.20;;
51248;SDS011;39642;47.556;18.728;2022-11-02T06:04:26;13.95;;;4.68;;
51248;SDS011;39642;47.556;18.728;2022-11-02T06:06:52;11.10;;;4.25;;
51248;SDS011;39642;47.556;18.728;2022-11-02T06:09:18;13.25;;;4.60;;
51248;SDS011;39642;47.556;18.728;2022-11-02T06:11:44;14.57;;;5.15;;
51248;SDS011;39642;47.556;18.728;2022-11-02T06:14:09;17.75;;;6.12;;
51248;SDS011;39642;47.556;18.728;2022-11-02T06:16:35;19.80;;;6.97;;
51248;SDS011;39642;47.556;18.728;2022-11-02T06:19:01;21.23;;;6.43;;
51248;SDS011;39642;47.556;18.728;2022-11-02T06:21:27;24.85;;;9.15;;
51248;SDS011;39642;47.556;18.728;2022-11-02T06:23:53;22.37;;;8.43;;
51248;SDS011;39642;47.556;18.728;2022-11-02T06:26:19;25.35;;;8.38;;
51248;SDS011;39642;47.556;18.728;2022-11-02T06:28:45;26.37;;;8.88;;
51248;SDS011;39642;47.556;18.728;2022-11-02T06:31:11;20.95;;;7.43;;
51248;SDS011;39642;47.556;18.728;2022-11-02T06:33:37;24.40;;;7.95;;
51248;SDS011;39642;47.556;18.728;2022-11-02T06:36:03;28.40;;;9.65;;
51248;SDS011;39642;47.556;18.728;2022-11-02T06:38:30;28.42;;;9.98;;
51248;SDS011;39642;47.556;18.728;2022-11-02T06:41:59;34.47;;;11.07;;
51248;SDS011;39642;47.556;18.728;2022-11-02T06:44:25;23.08;;;8.98;;
51248;SDS011;39642;47.556;18.728;2022-11-02T06:46:50;20.00;;;7.18;;
51248;SDS011;39642;47.556;18.728;2022-11-02T06:49:16;23.58;;;9.27;;
51248;SDS011;39642;47.556;18.728;2022-11-02T06:51:42;33.38;;;10.48;;
51248;SDS011;39642;47.556;18.728;2022-11-02T06:54:08;21.60;;;9.60;;
51248;SDS011;39642;47.556;18.728;2022-11-02T06:56:34;28.55;;;10.40;;
51248;SDS011;39642;47.556;18.728;2022-11-02T06:59:00;23.80;;;9.35;;
51248;SDS011;39642;47.556;18.728;2022-11-02T07:01:26;29.30;;;9.55;;
51248;SDS011;39642;47.556;18.728;2022-11-02T07:03:51;24.95;;;9.20;;
51248;SDS011;39642;47.556;18.728;2022-11-02T07:06:17;21.05;;;8.55;;
51248;SDS011;39642;47.556;18.728;2022-11-02T07:08:43;26.30;;;9.45;;
51248;SDS011;39642;47.556;18.728;2022-11-02T07:11:13;22.05;;;9.38;;
51248;SDS011;39642;47.556;18.728;2022-11-02T07:13:40;21.60;;;8.50;;
51248;SDS011;39642;47.556;18.728;2022-11-02T07:16:06;18.67;;;7.60;;
51248;SDS011;39642;47.556;18.728;2022-11-02T07:18:32;20.62;;;8.65;;
51248;SDS011;39642;47.556;18.728;2022-11-02T07:20:58;23.85;;;9.07;;
51248;SDS011;39642;47.556;18.728;2022-11-02T07:23:24;21.42;;;7.55;;
51248;SDS011;39642;47.556;18.728;2022-11-02T07:25:50;23.15;;;8.80;;
51248;SDS011;39642;47.556;18.728;2022-11-02T07:28:17;24.08;;;9.75;;
51248;SDS011;39642;47.556;18.728;2022-11-02T07:30:43;18.98;;;6.95;;
51248;SDS011;39642;47.556;18.728;2022-11-02T07:33:10;16.45;;;7.18;;
51248;SDS011;39642;47.556;18.728;2022-11-02T07:35:36;18.05;;;7.90;;
51248;SDS011;39642;47.556;18.728;2022-11-02T07:38:03;23.27;;;7.97;;
51248;SDS011;39642;47.556;18.728;2022-11-02T07:40:30;18.80;;;7.32;;
51248;SDS011;39642;47.556;18.728;2022-11-02T07:42:58;16.20;;;6.10;;
51248;SDS011;39642;47.556;18.728;2022-11-02T07:45:24;17.85;;;8.02;;
51248;SDS011;39642;47.556;18.728;2022-11-02T07:47:50;21.15;;;8.73;;
51248;SDS011;39642;47.556;18.728;2022-11-02T07:50:17;38.17;;;10.60;;
51248;SDS011;39642;47.556;18.728;2022-11-02T07:52:45;35.53;;;11.57;;
51248;SDS011;39642;47.556;18.728;2022-11-02T07:55:13;36.95;;;14.70;;
51248;SDS011;39642;47.556;18.728;2022-11-02T07:57:40;41.08;;;15.35;;
51248;SDS011;39642;47.556;18.728;2022-11-02T08:00:11;29.17;;;9.45;;
51248;SDS011;39642;47.556;18.728;2022-11-02T08:02:37;30.95;;;11.40;;
51248;SDS011;39642;47.556;18.728;2022-11-02T08:05:04;38.85;;;12.60;;
51248;SDS011;39642;47.556;18.728;2022-11-02T08:07:30;38.33;;;13.07;;
51248;SDS011;39642;47.556;18.728;2022-11-02T08:39:59;33.88;;;11.43;;
51248;SDS011;39642;47.556;18.728;2022-11-02T08:42:25;31.58;;;11.63;;
51248;SDS011;39642;47.556;18.728;2022-11-02T08:44:51;35.90;;;10.98;;
51248;SDS011;39642;47.556;18.728;2022-11-02T08:47:16;33.25;;;11.12;;
51248;SDS011;39642;47.556;18.728;2022-11-02T08:49:43;28.50;;;11.20;;
51248;SDS011;39642;47.556;18.728;2022-11-02T08:52:09;34.22;;;11.07;;
51248;SDS011;39642;47.556;18.728;2022-11-02T08:54:35;31.62;;;9.95;;
51248;SDS011;39642;47.556;18.728;2022-11-02T08:57:01;30.83;;;10.07;;
51248;SDS011;39642;47.556;18.728;2022-11-02T08:59:26;37.40;;;10.27;;
51248;SDS011;39642;47.556;18.728;2022-11-02T09:01:52;32.65;;;9.93;;
51248;SDS011;39642;47.556;18.728;2022-11-02T09:04:18;29.37;;;9.27;;
51248;SDS011;39642;47.556;18.728;2022-11-02T09:06:44;33.25;;;9.65;;
51248;SDS011;39642;47.556;18.728;2022-11-02T09:09:10;30.92;;;9.07;;
51248;SDS011;39642;47.556;18.728;2022-11-02T09:11:36;27.58;;;8.27;;
51248;SDS011;39642;47.556;18.728;2022-11-02T09:14:02;24.02;;;7.72;;
51248;SDS011;39642;47.556;18.728;2022-11-02T09:16:28;27.17;;;9.07;;
51248;SDS011;39642;47.556;18.728;2022-11-02T09:18:53;27.10;;;8.52;;
51248;SDS011;39642;47.556;18.728;2022-11-02T09:21:19;21.73;;;7.40;;
51248;SDS011;39642;47.556;18.728;2022-11-02T09:23:45;28.75;;;8.45;;
51248;SDS011;39642;47.556;18.728;2022-11-02T09:26:14;28.92;;;8.20;;
51248;SDS011;39642;47.556;18.728;2022-11-02T09:28:40;24.00;;;8.85;;
51248;SDS011;39642;47.556;18.728;2022-11-02T09:31:06;23.00;;;7.75;;
51248;SDS011;39642;47.556;18.728;2022-11-02T09:33:32;22.55;;;8.50;;
51248;SDS011;39642;47.556;18.728;2022-11-02T09:36:02;20.15;;;7.37;;
51248;SDS011;39642;47.556;18.728;2022-11-02T09:38:29;26.92;;;8.43;;
51248;SDS011;39642;47.556;18.728;2022-11-02T09:41:05;20.30;;;7.60;;
51248;SDS011;39642;47.556;18.728;2022-11-02T09:43:46;32.95;;;9.20;;
51248;SDS011;39642;47.556;18.728;2022-11-02T09:46:37;30.50;;;8.13;;
51248;SDS011;39642;47.556;18.728;2022-11-02T09:49:19;27.42;;;8.05;;
51248;SDS011;39642;47.556;18.728;2022-11-02T09:51:55;30.23;;;8.10;;
51248;SDS011;39642;47.556;18.728;2022-11-02T10:19:22;33.80;;;7.72;;
51248;SDS011;39642;47.556;18.728;2022-11-02T10:21:50;29.48;;;7.25;;
51248;SDS011;39642;47.556;18.728;2022-11-02T10:29:38;21.12;;;6.65;;
51248;SDS011;39642;47.556;18.728;2022-11-02T10:32:10;27.80;;;7.75;;
51248;SDS011;39642;47.556;18.728;2022-11-02T10:34:38;22.60;;;7.37;;
51248;SDS011;39642;47.556;18.728;2022-11-02T10:39:46;27.40;;;8.20;;
51248;SDS011;39642;47.556;18.728;2022-11-02T10:52:53;31.87;;;8.60;;
51248;SDS011;39642;47.556;18.728;2022-11-02T10:55:25;35.83;;;9.07;;
51248;SDS011;39642;47.556;18.728;2022-11-02T10:57:57;30.35;;;9.07;;
51248;SDS011;39642;47.556;18.728;2022-11-02T11:00:32;26.40;;;8.43;;
51248;SDS011;39642;47.556;18.728;2022-11-02T11:03:04;24.85;;;9.07;;
51248;SDS011;39642;47.556;18.728;2022-11-02T11:08:25;38.80;;;9.15;;
51248;SDS011;39642;47.556;18.728;2022-11-02T11:11:08;28.15;;;8.30;;
51248;SDS011;39642;47.556;18.728;2022-11-02T11:13:45;24.67;;;8.15;;
51248;SDS011;39642;47.556;18.728;2022-11-02T11:16:18;27.30;;;8.85;;
51248;SDS011;39642;47.556;18.728;2022-11-02T11:18:54;28.98;;;8.85;;
51248;SDS011;39642;47.556;18.728;2022-11-02T11:31:32;26.52;;;7.97;;
51248;SDS011;39642;47.556;18.728;2022-11-02T11:34:00;21.85;;;7.28;;
51248;SDS011;39642;47.556;18.728;2022-11-02T11:36:30;19.67;;;6.87;;
51248;SDS011;39642;47.556;18.728;2022-11-02T11:39:03;34.80;;;8.82;;
51248;SDS011;39642;47.556;18.728;2022-11-02T11:41:31;26.48;;;7.35;;
51248;SDS011;39642;47.556;18.728;2022-11-02T11:43:59;23.83;;;8.07;;
51248;SDS011;39642;47.556;18.728;2022-11-02T11:46:39;29.63;;;8.07;;
51248;SDS011;39642;47.556;18.728;2022-11-02T11:49:16;39.72;;;8.85;;
51248;SDS011;39642;47.556;18.728;2022-11-02T11:51:49;32.50;;;8.48;;
51248;SDS011;39642;47.556;18.728;2022-11-02T11:56:53;24.87;;;7.60;;
51248;SDS011;39642;47.556;18.728;2022-11-02T11:59:27;18.08;;;6.85;;
51248;SDS011;39642;47.556;18.728;2022-11-02T12:02:43;25.98;;;8.05;;
51248;SDS011;39642;47.556;18.728;2022-11-02T12:05:16;28.38;;;7.00;;
51248;SDS011;39642;47.556;18.728;2022-11-02T12:10:56;23.40;;;7.45;;
51248;SDS011;39642;47.556;18.728;2022-11-02T12:16:28;21.50;;;7.72;;
51248;SDS011;39642;47.556;18.728;2022-11-02T12:30:34;19.83;;;6.97;;
51248;SDS011;39642;47.556;18.728;2022-11-02T12:38:25;63.25;;;8.88;;
51248;SDS011;39642;47.556;18.728;2022-11-02T12:43:46;40.22;;;7.32;;
51248;SDS011;39642;47.556;18.728;2022-11-02T12:51:20;33.70;;;7.53;;
51248;SDS011;39642;47.556;18.728;2022-11-02T12:53:55;43.92;;;7.93;;
51248;SDS011;39642;47.556;18.728;2022-11-02T12:58:52;29.98;;;6.78;;
51248;SDS011;39642;47.556;18.728;2022-11-02T13:04:25;41.80;;;8.45;;
51248;SDS011;39642;47.556;18.728;2022-11-02T13:07:08;45.03;;;8.18;;
51248;SDS011;39642;47.556;18.728;2022-11-02T13:09:37;28.90;;;6.80;;
51248;SDS011;39642;47.556;18.728;2022-11-02T13:12:14;27.73;;;6.22;;
51248;SDS011;39642;47.556;18.728;2022-11-02T13:14:44;23.20;;;5.62;;
51248;SDS011;39642;47.556;18.728;2022-11-02T13:17:26;21.70;;;4.95;;
51248;SDS011;39642;47.556;18.728;2022-11-02T13:20:26;21.15;;;5.60;;
51248;SDS011;39642;47.556;18.728;2022-11-02T13:23:00;26.60;;;6.35;;
51248;SDS011;39642;47.556;18.728;2022-11-02T13:25:35;30.45;;;6.12;;
51248;SDS011;39642;47.556;18.728;2022-11-02T13:28:10;26.30;;;7.45;;
51248;SDS011;39642;47.556;18.728;2022-11-02T13:30:41;21.52;;;5.35;;
51248;SDS011;39642;47.556;18.728;2022-11-02T13:33:16;34.97;;;7.82;;
51248;SDS011;39642;47.556;18.728;2022-11-02T13:35:48;34.70;;;7.32;;
51248;SDS011;39642;47.556;18.728;2022-11-02T13:40:56;26.45;;;7.00;;
51248;SDS011;39642;47.556;18.728;2022-11-02T13:54:15;19.05;;;5.07;;
51248;SDS011;39642;47.556;18.728;2022-11-02T13:56:46;18.83;;;5.30;;
51248;SDS011;39642;47.556;18.728;2022-11-02T13:59:21;24.77;;;6.35;;
51248;SDS011;39642;47.556;18.728;2022-11-02T14:01:52;20.30;;;5.90;;
51248;SDS011;39642;47.556;18.728;2022-11-02T14:04:21;28.08;;;5.90;;
51248;SDS011;39642;47.556;18.728;2022-11-02T14:09:20;23.05;;;5.87;;
51248;SDS011;39642;47.556;18.728;2022-11-02T14:12:10;19.00;;;5.40;;
51248;SDS011;39642;47.556;18.728;2022-11-02T14:48:10;40.55;;;6.80;;
51248;SDS011;39642;47.556;18.728;2022-11-02T14:50:40;18.20;;;4.20;;
51248;SDS011;39642;47.556;18.728;2022-11-02T14:53:16;26.95;;;5.28;;
51248;SDS011;39642;47.556;18.728;2022-11-02T14:55:53;25.48;;;4.53;;
51248;SDS011;39642;47.556;18.728;2022-11-02T14:58:28;21.20;;;4.78;;
51248;SDS011;39642;47.556;18.728;2022-11-02T15:01:00;22.42;;;5.72;;
51248;SDS011;39642;47.556;18.728;2022-11-02T15:03:30;23.42;;;5.78;;
51248;SDS011;39642;47.556;18.728;2022-11-02T15:06:00;28.60;;;5.12;;
51248;SDS011;39642;47.556;18.728;2022-11-02T15:08:30;26.27;;;4.87;;
51248;SDS011;39642;47.556;18.728;2022-11-02T15:14:29;21.80;;;5.57;;
51248;SDS011;39642;47.556;18.728;2022-11-02T15:19:42;31.77;;;5.68;;
51248;SDS011;39642;47.556;18.728;2022-11-02T15:25:04;26.80;;;5.93;;
51248;SDS011;39642;47.556;18.728;2022-11-02T15:27:37;19.80;;;5.70;;
51248;SDS011;39642;47.556;18.728;2022-11-02T15:30:06;19.67;;;5.10;;
51248;SDS011;39642;47.556;18.728;2022-11-02T15:32:51;23.48;;;5.43;;
51248;SDS011;39642;47.556;18.728;2022-11-02T15:35:24;20.92;;;5.10;;
51248;SDS011;39642;47.556;18.728;2022-11-02T15:37:58;22.13;;;5.80;;
51248;SDS011;39642;47.556;18.728;2022-11-02T15:40:31;25.08;;;5.57;;
51248;SDS011;39642;47.556;18.728;2022-11-02T15:43:02;20.85;;;5.03;;
51248;SDS011;39642;47.556;18.728;2022-11-02T15:45:58;19.80;;;4.95;;
51248;SDS011;39642;47.556;18.728;2022-11-02T15:48:38;21.92;;;5.20;;
51248;SDS011;39642;47.556;18.728;2022-11-02T16:02:13;16.92;;;4.95;;
51248;SDS011;39642;47.556;18.728;2022-11-02T16:04:47;15.45;;;4.90;;
51248;SDS011;39642;47.556;18.728;2022-11-02T16:07:16;16.12;;;5.10;;
51248;SDS011;39642;47.556;18.728;2022-11-02T16:09:43;19.27;;;5.40;;
51248;SDS011;39642;47.556;18.728;2022-11-02T16:12:18;15.23;;;4.90;;
51248;SDS011;39642;47.556;18.728;2022-11-02T16:17:29;16.17;;;5.57;;
51248;SDS011;39642;47.556;18.728;2022-11-02T16:22:53;19.73;;;5.70;;
51248;SDS011;39642;47.556;18.728;2022-11-02T16:25:30;21.30;;;6.12;;
51248;SDS011;39642;47.556;18.728;2022-11-02T16:27:59;18.45;;;6.15;;
51248;SDS011;39642;47.556;18.728;2022-11-02T16:33:23;18.27;;;6.30;;
51248;SDS011;39642;47.556;18.728;2022-11-02T16:35:51;16.75;;;5.65;;
51248;SDS011;39642;47.556;18.728;2022-11-02T16:38:18;16.50;;;5.62;;
51248;SDS011;39642;47.556;18.728;2022-11-02T16:40:44;15.75;;;6.00;;
51248;SDS011;39642;47.556;18.728;2022-11-02T16:43:14;17.90;;;5.28;;
51248;SDS011;39642;47.556;18.728;2022-11-02T16:45:40;13.90;;;5.05;;
51248;SDS011;39642;47.556;18.728;2022-11-02T16:48:17;13.52;;;5.32;;
51248;SDS011;39642;47.556;18.728;2022-11-02T16:51:04;13.80;;;5.20;;
51248;SDS011;39642;47.556;18.728;2022-11-02T16:53:32;13.95;;;5.18;;
51248;SDS011;39642;47.556;18.728;2022-11-02T16:58:58;15.10;;;5.12;;
51248;SDS011;39642;47.556;18.728;2022-11-02T17:01:36;19.98;;;5.68;;
51248;SDS011;39642;47.556;18.728;2022-11-02T17:04:13;17.12;;;4.80;;
51248;SDS011;39642;47.556;18.728;2022-11-02T17:06:42;12.20;;;4.55;;
51248;SDS011;39642;47.556;18.728;2022-11-02T17:09:18;12.88;;;4.32;;
51248;SDS011;39642;47.556;18.728;2022-11-02T17:11:52;13.35;;;4.10;;
51248;SDS011;39642;47.556;18.728;2022-11-02T17:14:20;11.63;;;4.10;;
51248;SDS011;39642;47.556;18.728;2022-11-02T17:24:46;13.27;;;4.78;;
51248;SDS011;39642;47.556;18.728;2022-11-02T17:27:17;14.20;;;4.68;;
51248;SDS011;39642;47.556;18.728;2022-11-02T17:29:50;13.25;;;4.65;;
51248;SDS011;39642;47.556;18.728;2022-11-02T17:32:19;12.73;;;4.55;;
51248;SDS011;39642;47.556;18.728;2022-11-02T17:34:55;12.57;;;4.53;;
51248;SDS011;39642;47.556;18.728;2022-11-02T17:37:26;12.57;;;4.10;;
51248;SDS011;39642;47.556;18.728;2022-11-02T17:39:55;13.05;;;4.10;;
51248;SDS011;39642;47.556;18.728;2022-11-02T17:42:24;12.02;;;4.03;;
51248;SDS011;39642;47.556;18.728;2022-11-02T17:45:22;12.88;;;4.18;;
51248;SDS011;39642;47.556;18.728;2022-11-02T17:47:55;10.90;;;4.07;;
51248;SDS011;39642;47.556;18.728;2022-11-02T17:50:23;12.32;;;4.03;;
51248;SDS011;39642;47.556;18.728;2022-11-02T17:52:53;12.13;;;4.15;;
51248;SDS011;39642;47.556;18.728;2022-11-02T17:55:21;10.98;;;4.30;;
51248;SDS011;39642;47.556;18.728;2022-11-02T17:57:49;11.35;;;4.57;;
51248;SDS011;39642;47.556;18.728;2022-11-02T18:00:15;13.07;;;4.20;;
51248;SDS011;39642;47.556;18.728;2022-11-02T18:02:48;15.05;;;4.40;;
51248;SDS011;39642;47.556;18.728;2022-11-02T18:08:02;11.85;;;4.15;;
51248;SDS011;39642;47.556;18.728;2022-11-02T18:10:30;12.07;;;4.53;;
51248;SDS011;39642;47.556;18.728;2022-11-02T18:12:58;12.98;;;4.50;;
51248;SDS011;39642;47.556;18.728;2022-11-02T18:15:25;13.32;;;4.10;;
51248;SDS011;39642;47.556;18.728;2022-11-02T18:17:52;15.60;;;4.40;;
51248;SDS011;39642;47.556;18.728;2022-11-02T18:20:21;12.40;;;4.15;;
51248;SDS011;39642;47.556;18.728;2022-11-02T18:22:48;12.40;;;4.30;;
51248;SDS011;39642;47.556;18.728;2022-11-02T18:25:15;11.60;;;3.97;;
51248;SDS011;39642;47.556;18.728;2022-11-02T18:27:43;15.82;;;4.30;;
51248;SDS011;39642;47.556;18.728;2022-11-02T18:30:11;13.60;;;3.90;;
51248;SDS011;39642;47.556;18.728;2022-11-02T18:32:39;10.98;;;3.53;;
51248;SDS011;39642;47.556;18.728;2022-11-02T18:35:07;11.65;;;3.62;;
51248;SDS011;39642;47.556;18.728;2022-11-02T18:37:35;11.80;;;4.10;;
51248;SDS011;39642;47.556;18.728;2022-11-02T18:40:02;13.02;;;4.05;;
51248;SDS011;39642;47.556;18.728;2022-11-02T18:42:29;12.75;;;4.03;;
51248;SDS011;39642;47.556;18.728;2022-11-02T18:44:55;10.00;;;3.80;;